sensor_id;sensor_type;location;lat;lon;timestamp;temperature;humidity
43607;DHT22;29197;44.788;10.366;2023-11-22T10:22:17;16.10;99.90
43607;DHT22;29197;44.788;10.366;2023-11-22T10:25:10;16.30;99.90
43607;DHT22;29197;44.788;10.366;2023-11-22T10:28:00;16.30;99.90
43607;DHT22;29197;44.788;10.366;2023-11-22T10:30:49;16.40;99.90
43607;DHT22;29197;44.788;10.366;2023-11-22T10:33:39;16.50;99.90
43607;DHT22;29197;44.788;10.366;2023-11-22T10:36:30;16.50;99.90
43607;DHT22;29197;44.788;10.366;2023-11-22T10:39:19;16.60;99.90
43607;DHT22;29197;44.788;10.366;2023-11-22T10:42:09;16.70;99.90
43607;DHT22;29197;44.788;10.366;2023-11-22T10:45:00;16.80;99.90
43607;DHT22;29197;44.788;10.366;2023-11-22T10:47:52;16.90;99.90
43607;DHT22;29197;44.788;10.366;2023-11-22T10:50:42;17.00;99.90
43607;DHT22;29197;44.788;10.366;2023-11-22T10:53:35;17.10;99.90
43607;DHT22;29197;44.788;10.366;2023-11-22T10:56:26;17.20;99.90
43607;DHT22;29197;44.788;10.366;2023-11-22T10:59:15;17.20;99.90
43607;DHT22;29197;44.788;10.366;2023-11-22T11:02:08;17.20;99.90
43607;DHT22;29197;44.788;10.366;2023-11-22T11:05:03;17.20;99.90
43607;DHT22;29197;44.788;10.366;2023-11-22T11:08:08;17.30;99.90
43607;DHT22;29197;44.788;10.366;2023-11-22T11:11:00;17.40;99.90
43607;DHT22;29197;44.788;10.366;2023-11-22T11:13:51;17.40;99.90
43607;DHT22;29197;44.788;10.366;2023-11-22T11:16:42;17.50;99.90
43607;DHT22;29197;44.788;10.366;2023-11-22T11:19:35;17.60;99.90
43607;DHT22;29197;44.788;10.366;2023-11-22T11:22:24;17.60;99.90
43607;DHT22;29197;44.788;10.366;2023-11-22T11:25:15;17.60;99.90
43607;DHT22;29197;44.788;10.366;2023-11-22T11:28:10;17.70;99.90
43607;DHT22;29197;44.788;10.366;2023-11-22T11:31:00;17.70;99.90
43607;DHT22;29197;44.788;10.366;2023-11-22T11:33:55;17.80;99.90
43607;DHT22;29197;44.788;10.366;2023-11-22T11:36:52;17.80;99.90
43607;DHT22;29197;44.788;10.366;2023-11-22T11:39:41;17.90;99.90
43607;DHT22;29197;44.788;10.366;2023-11-22T11:42:30;18.00;99.90
43607;DHT22;29197;44.788;10.366;2023-11-22T11:45:21;18.00;99.90
43607;DHT22;29197;44.788;10.366;2023-11-22T11:48:09;18.00;99.90
43607;DHT22;29197;44.788;10.366;2023-11-22T11:50:59;18.10;99.90
43607;DHT22;29197;44.788;10.366;2023-11-22T11:53:47;18.20;99.90
43607;DHT22;29197;44.788;10.366;2023-11-22T11:56:36;18.30;99.90
43607;DHT22;29197;44.788;10.366;2023-11-22T11:59:25;18.30;99.90
43607;DHT22;29197;44.788;10.366;2023-11-22T12:02:16;18.50;99.90
43607;DHT22;29197;44.788;10.366;2023-11-22T12:05:07;18.50;99.90
43607;DHT22;29197;44.788;10.366;2023-11-22T12:07:57;18.60;99.90
43607;DHT22;29197;44.788;10.366;2023-11-22T12:10:46;18.60;99.90
43607;DHT22;29197;44.788;10.366;2023-11-22T12:13:37;18.50;99.90
43607;DHT22;29197;44.788;10.366;2023-11-22T12:16:26;18.50;99.90
43607;DHT22;29197;44.788;10.366;2023-11-22T12:19:23;18.60;99.90
43607;DHT22;29197;44.788;10.366;2023-11-22T12:22:14;18.70;99.90
43607;DHT22;29197;44.788;10.366;2023-11-22T12:25:04;18.80;99.90
43607;DHT22;29197;44.788;10.366;2023-11-22T12:27:54;18.80;99.90
43607;DHT22;29197;44.788;10.366;2023-11-22T12:30:43;18.90;99.90
43607;DHT22;29197;44.788;10.366;2023-11-22T12:33:31;19.00;99.90
43607;DHT22;29197;44.788;10.366;2023-11-22T12:36:21;19.00;99.90
43607;DHT22;29197;44.788;10.366;2023-11-22T12:39:10;19.10;99.90
43607;DHT22;29197;44.788;10.366;2023-11-22T12:42:04;19.10;99.90
43607;DHT22;29197;44.788;10.366;2023-11-22T12:44:57;19.10;99.90
43607;DHT22;29197;44.788;10.366;2023-11-22T12:47:46;19.20;99.90
43607;DHT22;29197;44.788;10.366;2023-11-22T12:50:37;19.30;99.90
43607;DHT22;29197;44.788;10.366;2023-11-22T12:53:28;19.30;99.90
43607;DHT22;29197;44.788;10.366;2023-11-22T12:56:17;19.30;99.90
43607;DHT22;29197;44.788;10.366;2023-11-22T12:59:06;19.20;99.90
43607;DHT22;29197;44.788;10.366;2023-11-22T13:01:55;19.10;99.90
43607;DHT22;29197;44.788;10.366;2023-11-22T13:04:45;19.10;99.90
43607;DHT22;29197;44.788;10.366;2023-11-22T13:07:34;19.00;99.90
43607;DHT22;29197;44.788;10.366;2023-11-22T13:10:24;19.00;99.90
43607;DHT22;29197;44.788;10.366;2023-11-22T13:13:13;18.90;99.90
43607;DHT22;29197;44.788;10.366;2023-11-22T13:16:03;18.70;99.90
43607;DHT22;29197;44.788;10.366;2023-11-22T13:18:52;18.70;99.90
43607;DHT22;29197;44.788;10.366;2023-11-22T13:21:41;18.60;99.90
43607;DHT22;29197;44.788;10.366;2023-11-22T13:24:32;18.40;99.90
43607;DHT22;29197;44.788;10.366;2023-11-22T13:27:22;18.30;99.90
43607;DHT22;29197;44.788;10.366;2023-11-22T13:30:10;18.40;99.90
43607;DHT22;29197;44.788;10.366;2023-11-22T13:32:59;18.20;99.90
43607;DHT22;29197;44.788;10.366;2023-11-22T13:35:48;18.10;99.90
43607;DHT22;29197;44.788;10.366;2023-11-22T13:38:38;18.00;99.90
43607;DHT22;29197;44.788;10.366;2023-11-22T13:41:27;17.80;99.90
43607;DHT22;29197;44.788;10.366;2023-11-22T13:44:17;17.70;99.90
43607;DHT22;29197;44.788;10.366;2023-11-22T13:47:06;17.60;99.90
43607;DHT22;29197;44.788;10.366;2023-11-22T13:49:55;17.40;99.90
43607;DHT22;29197;44.788;10.366;2023-11-22T13:52:43;17.30;99.90
43607;DHT22;29197;44.788;10.366;2023-11-22T13:55:32;17.10;99.90
43607;DHT22;29197;44.788;10.366;2023-11-22T13:58:21;17.00;99.90
43607;DHT22;29197;44.788;10.366;2023-11-22T14:01:11;16.80;99.90
43607;DHT22;29197;44.788;10.366;2023-11-22T14:04:04;16.60;99.90
43607;DHT22;29197;44.788;10.366;2023-11-22T14:06:53;16.40;99.90
43607;DHT22;29197;44.788;10.366;2023-11-22T14:09:42;16.30;99.90
43607;DHT22;29197;44.788;10.366;2023-11-22T14:12:34;16.10;99.90
43607;DHT22;29197;44.788;10.366;2023-11-22T14:15:22;16.00;99.90
43607;DHT22;29197;44.788;10.366;2023-11-22T14:18:12;15.90;99.90
43607;DHT22;29197;44.788;10.366;2023-11-22T14:21:01;15.80;99.90
43607;DHT22;29197;44.788;10.366;2023-11-22T14:26:42;15.70;99.90
43607;DHT22;29197;44.788;10.366;2023-11-22T14:29:36;15.60;99.90
43607;DHT22;29197;44.788;10.366;2023-11-22T14:32:24;15.50;99.90
43607;DHT22;29197;44.788;10.366;2023-11-22T14:35:16;15.50;99.90
43607;DHT22;29197;44.788;10.366;2023-11-22T14:38:05;15.40;99.90
43607;DHT22;29197;44.788;10.366;2023-11-22T14:40:54;15.30;99.90
43607;DHT22;29197;44.788;10.366;2023-11-22T14:43:44;15.30;99.90
43607;DHT22;29197;44.788;10.366;2023-11-22T14:46:33;15.30;99.90
43607;DHT22;29197;44.788;10.366;2023-11-22T14:49:24;15.20;99.90
43607;DHT22;29197;44.788;10.366;2023-11-22T14:52:14;15.20;99.90
43607;DHT22;29197;44.788;10.366;2023-11-22T14:55:03;15.20;99.90
43607;DHT22;29197;44.788;10.366;2023-11-22T14:57:53;15.10;99.90
43607;DHT22;29197;44.788;10.366;2023-11-22T15:00:45;15.10;99.90
43607;DHT22;29197;44.788;10.366;2023-11-22T15:03:33;15.10;99.90
43607;DHT22;29197;44.788;10.366;2023-11-22T15:06:23;15.00;99.90
43607;DHT22;29197;44.788;10.366;2023-11-22T15:12:02;14.90;99.90
43607;DHT22;29197;44.788;10.366;2023-11-22T15:14:51;14.90;99.90
43607;DHT22;29197;44.788;10.366;2023-11-22T15:17:40;14.80;99.90
43607;DHT22;29197;44.788;10.366;2023-11-22T15:26:08;14.70;99.90
43607;DHT22;29197;44.788;10.366;2023-11-22T15:31:46;14.60;99.90
43607;DHT22;29197;44.788;10.366;2023-11-22T15:34:35;14.50;99.90
43607;DHT22;29197;44.788;10.366;2023-11-22T15:37:25;14.50;99.90
43607;DHT22;29197;44.788;10.366;2023-11-22T15:40:14;14.50;99.90
43607;DHT22;29197;44.788;10.366;2023-11-22T15:43:06;14.40;99.90
43607;DHT22;29197;44.788;10.366;2023-11-22T15:45:55;14.40;99.90
43607;DHT22;29197;44.788;10.366;2023-11-22T15:48:43;14.30;99.90
43607;DHT22;29197;44.788;10.366;2023-11-22T15:51:32;14.30;99.90
43607;DHT22;29197;44.788;10.366;2023-11-22T15:54:21;14.20;99.90
43607;DHT22;29197;44.788;10.366;2023-11-22T15:57:09;14.20;99.90
43607;DHT22;29197;44.788;10.366;2023-11-22T15:59:59;14.10;99.90
43607;DHT22;29197;44.788;10.366;2023-11-22T16:02:48;14.10;99.90
43607;DHT22;29197;44.788;10.366;2023-11-22T16:05:37;14.00;99.90
43607;DHT22;29197;44.788;10.366;2023-11-22T16:08:26;14.00;99.90
43607;DHT22;29197;44.788;10.366;2023-11-22T16:11:14;14.00;99.90
43607;DHT22;29197;44.788;10.366;2023-11-22T16:14:03;13.90;99.90
43607;DHT22;29197;44.788;10.366;2023-11-22T16:16:53;13.90;99.90
43607;DHT22;29197;44.788;10.366;2023-11-22T16:19:45;13.90;99.90
43607;DHT22;29197;44.788;10.366;2023-11-22T16:22:33;13.80;99.90
43607;DHT22;29197;44.788;10.366;2023-11-22T16:25:25;13.80;99.90
43607;DHT22;29197;44.788;10.366;2023-11-22T16:28:14;13.80;99.90
43607;DHT22;29197;44.788;10.366;2023-11-22T16:31:03;13.80;99.90
43607;DHT22;29197;44.788;10.366;2023-11-22T16:33:54;13.70;99.90
43607;DHT22;29197;44.788;10.366;2023-11-22T16:36:45;13.70;99.90
43607;DHT22;29197;44.788;10.366;2023-11-22T16:39:33;13.70;99.90
43607;DHT22;29197;44.788;10.366;2023-11-22T16:42:22;13.60;99.90
43607;DHT22;29197;44.788;10.366;2023-11-22T16:45:11;13.60;99.90
43607;DHT22;29197;44.788;10.366;2023-11-22T16:47:59;13.60;99.90
43607;DHT22;29197;44.788;10.366;2023-11-22T16:50:51;13.50;99.90
43607;DHT22;29197;44.788;10.366;2023-11-22T16:53:39;13.50;99.90
43607;DHT22;29197;44.788;10.366;2023-11-22T16:56:28;13.40;99.90
43607;DHT22;29197;44.788;10.366;2023-11-22T16:59:17;13.40;99.90
43607;DHT22;29197;44.788;10.366;2023-11-22T17:02:06;13.40;99.90
43607;DHT22;29197;44.788;10.366;2023-11-22T17:04:54;13.30;99.90
43607;DHT22;29197;44.788;10.366;2023-11-22T17:07:46;13.30;99.90
43607;DHT22;29197;44.788;10.366;2023-11-22T17:10:34;13.20;99.90
43607;DHT22;29197;44.788;10.366;2023-11-22T17:13:33;12.60;99.90
43607;DHT22;29197;44.788;10.366;2023-11-22T17:16:22;13.20;99.90
43607;DHT22;29197;44.788;10.366;2023-11-22T17:19:11;13.10;99.90
43607;DHT22;29197;44.788;10.366;2023-11-22T17:22:00;13.10;99.90
43607;DHT22;29197;44.788;10.366;2023-11-22T17:24:50;13.10;99.90
43607;DHT22;29197;44.788;10.366;2023-11-22T17:27:39;13.00;99.90
43607;DHT22;29197;44.788;10.366;2023-11-22T17:30:41;13.00;99.90
43607;DHT22;29197;44.788;10.366;2023-11-22T17:33:29;13.00;99.90
43607;DHT22;29197;44.788;10.366;2023-11-22T17:36:19;12.90;99.90
43607;DHT22;29197;44.788;10.366;2023-11-22T17:39:07;12.90;99.90
43607;DHT22;29197;44.788;10.366;2023-11-22T17:42:00;12.90;99.90
43607;DHT22;29197;44.788;10.366;2023-11-22T17:44:49;12.70;99.90
43607;DHT22;29197;44.788;10.366;2023-11-22T17:47:39;12.90;99.90
43607;DHT22;29197;44.788;10.366;2023-11-22T17:50:27;12.80;99.90
43607;DHT22;29197;44.788;10.366;2023-11-22T17:53:17;12.80;99.90
43607;DHT22;29197;44.788;10.366;2023-11-22T17:56:10;12.80;99.90
43607;DHT22;29197;44.788;10.366;2023-11-22T17:59:00;12.80;99.90
43607;DHT22;29197;44.788;10.366;2023-11-22T18:01:50;12.80;99.90
43607;DHT22;29197;44.788;10.366;2023-11-22T18:07:29;12.70;99.90
43607;DHT22;29197;44.788;10.366;2023-11-22T18:10:18;12.70;99.90
43607;DHT22;29197;44.788;10.366;2023-11-22T18:13:07;12.60;99.90
43607;DHT22;29197;44.788;10.366;2023-11-22T18:16:01;12.50;99.90
43607;DHT22;29197;44.788;10.366;2023-11-22T18:18:50;12.40;99.90
43607;DHT22;29197;44.788;10.366;2023-11-22T18:21:38;12.30;99.90
43607;DHT22;29197;44.788;10.366;2023-11-22T18:24:28;12.30;99.90
43607;DHT22;29197;44.788;10.366;2023-11-22T18:27:17;12.10;99.90
43607;DHT22;29197;44.788;10.366;2023-11-22T18:30:07;12.10;99.90
43607;DHT22;29197;44.788;10.366;2023-11-22T18:32:58;12.00;99.90
43607;DHT22;29197;44.788;10.366;2023-11-22T18:35:47;12.10;99.90
43607;DHT22;29197;44.788;10.366;2023-11-22T18:38:36;12.00;99.90
43607;DHT22;29197;44.788;10.366;2023-11-22T18:41:25;12.00;99.90
43607;DHT22;29197;44.788;10.366;2023-11-22T18:44:15;12.00;99.90
43607;DHT22;29197;44.788;10.366;2023-11-22T18:47:04;12.20;99.90
43607;DHT22;29197;44.788;10.366;2023-11-22T18:49:54;12.30;99.90
43607;DHT22;29197;44.788;10.366;2023-11-22T18:52:42;12.40;99.90
43607;DHT22;29197;44.788;10.366;2023-11-22T18:55:31;12.50;99.90
43607;DHT22;29197;44.788;10.366;2023-11-22T18:58:19;12.40;99.90
43607;DHT22;29197;44.788;10.366;2023-11-22T19:01:08;12.30;99.90
43607;DHT22;29197;44.788;10.366;2023-11-22T19:03:57;12.20;99.90
43607;DHT22;29197;44.788;10.366;2023-11-22T19:06:47;12.10;99.90
43607;DHT22;29197;44.788;10.366;2023-11-22T19:09:37;12.00;99.90
43607;DHT22;29197;44.788;10.366;2023-11-22T19:12:26;12.00;99.90
43607;DHT22;29197;44.788;10.366;2023-11-22T19:15:14;11.90;99.90
43607;DHT22;29197;44.788;10.366;2023-11-22T19:18:03;11.80;99.90
43607;DHT22;29197;44.788;10.366;2023-11-22T19:20:52;11.70;99.90
43607;DHT22;29197;44.788;10.366;2023-11-22T19:23:42;11.80;99.90
43607;DHT22;29197;44.788;10.366;2023-11-22T19:26:31;11.80;99.90
43607;DHT22;29197;44.788;10.366;2023-11-22T19:29:21;11.90;99.90
43607;DHT22;29197;44.788;10.366;2023-11-22T19:32:09;11.90;99.90
43607;DHT22;29197;44.788;10.366;2023-11-22T19:35:01;11.90;99.90
43607;DHT22;29197;44.788;10.366;2023-11-22T19:37:50;12.00;99.90
43607;DHT22;29197;44.788;10.366;2023-11-22T19:40:40;11.90;99.90
43607;DHT22;29197;44.788;10.366;2023-11-22T19:43:29;11.90;99.90
43607;DHT22;29197;44.788;10.366;2023-11-22T19:46:17;11.80;99.90
43607;DHT22;29197;44.788;10.366;2023-11-22T19:49:06;11.80;99.90
43607;DHT22;29197;44.788;10.366;2023-11-22T19:51:58;11.60;99.90
43607;DHT22;29197;44.788;10.366;2023-11-22T19:54:47;11.60;99.90
43607;DHT22;29197;44.788;10.366;2023-11-22T19:57:38;11.60;99.90
43607;DHT22;29197;44.788;10.366;2023-11-22T20:00:27;11.70;99.90
43607;DHT22;29197;44.788;10.366;2023-11-22T20:03:16;11.60;99.90
43607;DHT22;29197;44.788;10.366;2023-11-22T20:06:05;11.70;99.90
43607;DHT22;29197;44.788;10.366;2023-11-22T20:08:54;11.60;99.90
43607;DHT22;29197;44.788;10.366;2023-11-22T20:11:43;11.40;99.90
43607;DHT22;29197;44.788;10.366;2023-11-22T20:14:33;11.20;99.90
43607;DHT22;29197;44.788;10.366;2023-11-22T20:17:22;11.20;99.90
43607;DHT22;29197;44.788;10.366;2023-11-22T20:20:11;10.70;99.90
43607;DHT22;29197;44.788;10.366;2023-11-22T20:23:01;10.40;99.90
43607;DHT22;29197;44.788;10.366;2023-11-22T20:25:50;10.60;99.90
43607;DHT22;29197;44.788;10.366;2023-11-22T20:28:39;10.80;99.90
43607;DHT22;29197;44.788;10.366;2023-11-22T20:31:29;11.00;99.90
43607;DHT22;29197;44.788;10.366;2023-11-22T20:34:18;11.00;99.90
43607;DHT22;29197;44.788;10.366;2023-11-22T20:37:06;10.90;99.90
43607;DHT22;29197;44.788;10.366;2023-11-22T20:39:55;10.70;99.90
43607;DHT22;29197;44.788;10.366;2023-11-22T20:42:44;10.70;99.90
43607;DHT22;29197;44.788;10.366;2023-11-22T20:45:32;10.80;99.90
43607;DHT22;29197;44.788;10.366;2023-11-22T20:48:22;10.80;99.90
43607;DHT22;29197;44.788;10.366;2023-11-22T20:51:11;10.80;99.90
43607;DHT22;29197;44.788;10.366;2023-11-22T20:53:59;10.70;99.90
43607;DHT22;29197;44.788;10.366;2023-11-22T20:56:48;10.70;99.90
43607;DHT22;29197;44.788;10.366;2023-11-22T20:59:37;10.40;99.90
43607;DHT22;29197;44.788;10.366;2023-11-22T21:02:25;10.60;99.90
43607;DHT22;29197;44.788;10.366;2023-11-22T21:05:15;10.70;99.90
43607;DHT22;29197;44.788;10.366;2023-11-22T21:08:04;10.50;99.90
43607;DHT22;29197;44.788;10.366;2023-11-22T21:11:05;10.40;99.90
43607;DHT22;29197;44.788;10.366;2023-11-22T21:13:54;10.40;99.90
43607;DHT22;29197;44.788;10.366;2023-11-22T21:16:43;10.50;99.90
43607;DHT22;29197;44.788;10.366;2023-11-22T21:19:33;10.60;99.90
43607;DHT22;29197;44.788;10.366;2023-11-22T21:22:23;10.70;99.90
43607;DHT22;29197;44.788;10.366;2023-11-22T21:25:11;10.80;99.90
43607;DHT22;29197;44.788;10.366;2023-11-22T21:28:00;10.60;99.90
43607;DHT22;29197;44.788;10.366;2023-11-22T21:30:49;10.60;99.90
43607;DHT22;29197;44.788;10.366;2023-11-22T21:33:38;10.70;99.90
43607;DHT22;29197;44.788;10.366;2023-11-22T21:36:29;10.70;99.90
43607;DHT22;29197;44.788;10.366;2023-11-22T21:39:21;10.70;99.90
43607;DHT22;29197;44.788;10.366;2023-11-22T21:42:11;10.70;99.90
43607;DHT22;29197;44.788;10.366;2023-11-22T21:45:02;10.50;99.90
43607;DHT22;29197;44.788;10.366;2023-11-22T21:47:54;10.60;99.90
43607;DHT22;29197;44.788;10.366;2023-11-22T21:50:43;10.70;99.90
43607;DHT22;29197;44.788;10.366;2023-11-22T21:53:32;10.80;99.90
43607;DHT22;29197;44.788;10.366;2023-11-22T21:56:22;10.80;99.90
43607;DHT22;29197;44.788;10.366;2023-11-22T21:59:10;10.70;99.90
43607;DHT22;29197;44.788;10.366;2023-11-22T22:01:59;10.70;99.90
43607;DHT22;29197;44.788;10.366;2023-11-22T22:04:48;10.80;99.90
43607;DHT22;29197;44.788;10.366;2023-11-22T22:07:37;10.80;99.90
43607;DHT22;29197;44.788;10.366;2023-11-22T22:10:26;10.80;99.90
43607;DHT22;29197;44.788;10.366;2023-11-22T22:13:16;10.90;99.90
43607;DHT22;29197;44.788;10.366;2023-11-22T22:16:07;10.90;99.90
43607;DHT22;29197;44.788;10.366;2023-11-22T22:18:57;10.90;99.90
43607;DHT22;29197;44.788;10.366;2023-11-22T22:21:46;10.90;99.90
43607;DHT22;29197;44.788;10.366;2023-11-22T22:24:34;10.90;99.90
43607;DHT22;29197;44.788;10.366;2023-11-22T22:27:23;10.90;99.90
43607;DHT22;29197;44.788;10.366;2023-11-22T22:30:14;10.90;99.90
43607;DHT22;29197;44.788;10.366;2023-11-22T22:33:03;10.90;99.90
43607;DHT22;29197;44.788;10.366;2023-11-22T22:35:51;10.90;99.90
43607;DHT22;29197;44.788;10.366;2023-11-22T22:38:40;10.80;99.90
43607;DHT22;29197;44.788;10.366;2023-11-22T22:41:29;10.80;99.90
43607;DHT22;29197;44.788;10.366;2023-11-22T22:44:17;10.80;99.90
43607;DHT22;29197;44.788;10.366;2023-11-22T22:47:07;10.80;99.90
43607;DHT22;29197;44.788;10.366;2023-11-22T22:49:56;10.90;99.90
43607;DHT22;29197;44.788;10.366;2023-11-22T22:52:45;10.80;99.90
43607;DHT22;29197;44.788;10.366;2023-11-22T22:55:34;10.80;99.90
43607;DHT22;29197;44.788;10.366;2023-11-22T22:58:23;10.80;99.90
43607;DHT22;29197;44.788;10.366;2023-11-22T23:01:12;10.80;99.90
43607;DHT22;29197;44.788;10.366;2023-11-22T23:04:04;10.80;99.90
43607;DHT22;29197;44.788;10.366;2023-11-22T23:06:53;10.80;99.90
43607;DHT22;29197;44.788;10.366;2023-11-22T23:09:42;10.70;99.90
43607;DHT22;29197;44.788;10.366;2023-11-22T23:12:31;10.30;99.90
43607;DHT22;29197;44.788;10.366;2023-11-22T23:15:21;10.30;99.90
43607;DHT22;29197;44.788;10.366;2023-11-22T23:18:10;10.10;99.90
43607;DHT22;29197;44.788;10.366;2023-11-22T23:21:00;10.20;99.90
43607;DHT22;29197;44.788;10.366;2023-11-22T23:23:50;10.30;99.90
43607;DHT22;29197;44.788;10.366;2023-11-22T23:26:38;10.30;99.90
43607;DHT22;29197;44.788;10.366;2023-11-22T23:29:27;10.10;99.90
43607;DHT22;29197;44.788;10.366;2023-11-22T23:32:17;10.00;99.90
43607;DHT22;29197;44.788;10.366;2023-11-22T23:35:06;10.20;99.90
43607;DHT22;29197;44.788;10.366;2023-11-22T23:38:00;10.10;99.90
43607;DHT22;29197;44.788;10.366;2023-11-22T23:40:48;9.90;99.90
43607;DHT22;29197;44.788;10.366;2023-11-22T23:43:38;9.80;99.90
43607;DHT22;29197;44.788;10.366;2023-11-22T23:46:26;9.60;99.90
43607;DHT22;29197;44.788;10.366;2023-11-22T23:49:16;9.60;99.90
43607;DHT22;29197;44.788;10.366;2023-11-22T23:52:05;9.40;99.90
43607;DHT22;29197;44.788;10.366;2023-11-22T23:54:55;9.20;99.90
43607;DHT22;29197;44.788;10.366;2023-11-22T23:57:44;9.30;99.90
